Time;durP1;ratioP1;P1;durP2;ratioP2;P2;SDS_P1;SDS_P2;PMS_P1;PMS_P2;Temp;Humidity;BMP_temperature;BMP_pressure;BME280_temperature;BME280_humidity;BME280_pressure;Samples;Min_cycle;Max_cycle;Signal;HPM_P1;HPM_P2
2022/04/17 00:02:05;;;;;;;12.50;2.80;;;;;;;4.54;91.20;103077.66;6248855;28;20421;-69
2022/04/17 00:05:08;;;;;;;7.28;3.75;;;;;;;4.49;91.95;103075.84;6249703;28;20175;-69
2022/04/17 00:08:09;;;;;;;6.70;3.08;;;;;;;4.37;91.75;103076.63;6249611;28;20452;-69
2022/04/17 00:11:11;;;;;;;13.55;3.67;;;;;;;4.29;94.67;103071.31;6248584;28;20410;-69
2022/04/17 00:14:13;;;;;;;7.05;3.40;;;;;;;4.29;95.80;103070.44;6249654;28;20050;-69
2022/04/17 00:17:15;;;;;;;7.40;3.42;;;;;;;4.26;96.31;103062.59;6249432;28;20061;-69
2022/04/17 00:20:18;;;;;;;7.65;3.53;;;;;;;4.20;96.29;103059.94;6249134;28;20049;-68
2022/04/17 00:23:19;;;;;;;6.93;3.08;;;;;;;4.10;96.36;103063.31;6249231;28;20417;-69
2022/04/17 00:26:20;;;;;;;5.88;3.45;;;;;;;4.07;98.12;103070.22;6249531;28;20056;-69
2022/04/17 00:29:22;;;;;;;5.72;3.08;;;;;;;4.01;97.89;103066.69;6248972;28;20460;-69
2022/04/17 00:32:25;;;;;;;14.90;3.65;;;;;;;4.01;97.00;103066.69;6247465;28;20053;-70
2022/04/17 00:35:26;;;;;;;9.90;4.10;;;;;;;3.97;99.29;103064.91;6249075;28;20428;-69
2022/04/17 00:38:28;;;;;;;7.97;3.13;;;;;;;3.98;100.00;103059.72;6248922;28;20045;-70
2022/04/17 00:41:29;;;;;;;9.63;4.05;;;;;;;3.96;100.00;103060.56;6248087;28;20045;-69
2022/04/17 00:44:30;;;;;;;11.50;4.13;;;;;;;3.90;100.00;103044.88;6248632;28;20060;-69
2022/04/17 00:47:33;;;;;;;9.30;3.70;;;;;;;3.86;98.85;103050.88;6248831;28;20517;-69
2022/04/17 00:50:35;;;;;;;6.43;3.70;;;;;;;3.87;98.95;103047.47;6247970;28;20050;-69
2022/04/17 00:53:37;;;;;;;7.63;4.50;;;;;;;3.83;100.00;103043.94;6248597;28;20189;-69
2022/04/17 00:56:39;;;;;;;11.98;4.53;;;;;;;3.82;100.00;103039.59;6248629;28;20056;-69
2022/04/17 00:59:42;;;;;;;9.45;4.05;;;;;;;3.71;99.87;103033.38;6248359;28;20060;-69
2022/04/17 01:02:46;;;;;;;14.43;4.53;;;;;;;3.71;100.00;103039.47;6247898;28;20045;-69
2022/04/17 01:05:47;;;;;;;7.80;3.65;;;;;;;3.75;99.72;103028.25;6248658;28;20049;-69
2022/04/17 01:08:49;;;;;;;15.10;4.35;;;;;;;3.79;100.00;103023.94;6248103;28;20060;-69
2022/04/17 01:11:51;;;;;;;7.45;4.43;;;;;;;3.72;100.00;103022.13;6247360;28;20172;-69
2022/04/17 01:14:53;;;;;;;11.13;3.38;;;;;;;3.71;100.00;103023.84;6248424;28;20168;-69
2022/04/17 01:17:56;;;;;;;9.02;4.32;;;;;;;3.68;100.00;103012.53;6248084;28;20051;-69
2022/04/17 01:20:57;;;;;;;17.38;4.18;;;;;;;3.64;100.00;103011.66;6246479;28;20052;-69
2022/04/17 01:27:20;;;;;;;15.45;3.95;;;;;;;3.64;100.00;103013.38;6247820;28;20053;-69
2022/04/17 01:30:21;;;;;;;11.60;4.90;;;;;;;3.63;100.00;103011.63;6246879;28;20052;-69
2022/04/17 01:33:24;;;;;;;9.40;4.90;;;;;;;3.62;100.00;103017.66;6247605;28;20045;-69
2022/04/17 01:36:25;;;;;;;8.38;3.97;;;;;;;3.53;100.00;103014.09;6247379;28;20408;-69
2022/04/17 01:39:28;;;;;;;10.82;4.45;;;;;;;3.48;100.00;103014.91;6247736;28;20417;-69
2022/04/17 01:42:30;;;;;;;11.00;5.18;;;;;;;3.46;100.00;103012.31;6246818;28;20050;-69
2022/04/17 01:45:31;;;;;;;10.32;5.03;;;;;;;3.44;100.00;103008.78;6247347;28;20528;-69
2022/04/17 01:48:32;;;;;;;12.88;4.82;;;;;;;3.43;100.00;103006.19;6247108;28;20057;-69
2022/04/17 01:51:37;;;;;;;10.75;4.50;;;;;;;3.41;100.00;103002.69;6246543;28;20132;-69
2022/04/17 01:54:40;;;;;;;11.68;4.75;;;;;;;3.37;100.00;103001.78;6247355;28;20045;-69
2022/04/17 01:57:41;;;;;;;11.40;4.70;;;;;;;3.36;100.00;103002.66;6246966;28;20057;-69
2022/04/17 02:00:42;;;;;;;13.70;5.35;;;;;;;3.37;100.00;103006.13;6246483;28;20053;-69
2022/04/17 02:03:44;;;;;;;8.32;4.90;;;;;;;3.37;100.00;103001.78;6246898;28;20049;-69
2022/04/17 02:06:46;;;;;;;10.65;4.68;;;;;;;3.36;100.00;102999.16;6247198;28;20528;-68
2022/04/17 02:09:49;;;;;;;12.68;5.72;;;;;;;3.36;100.00;102993.94;6246415;28;20176;-69
2022/04/17 02:12:51;;;;;;;10.45;4.63;;;;;;;3.33;100.00;102993.94;6246729;28;20045;-69
2022/04/17 02:15:53;;;;;;;12.75;4.85;;;;;;;3.28;100.00;102996.47;6246835;28;20424;-69
2022/04/17 02:18:54;;;;;;;11.48;5.78;;;;;;;3.25;100.00;102996.41;6246951;28;20118;-69
2022/04/17 02:21:56;;;;;;;9.70;3.80;;;;;;;3.25;100.00;102996.41;6246049;28;20053;-69
2022/04/17 02:24:59;;;;;;;8.10;4.55;;;;;;;3.22;100.00;102991.16;6247121;28;20132;-69
2022/04/17 02:28:00;;;;;;;8.55;4.95;;;;;;;3.22;100.00;102985.97;6246848;28;20045;-69
2022/04/17 02:31:02;;;;;;;11.13;4.47;;;;;;;3.21;100.00;102986.84;6245834;28;20057;-69
2022/04/17 02:34:05;;;;;;;13.95;4.32;;;;;;;3.17;100.00;102991.09;6246867;28;20049;-69
2022/04/17 02:37:07;;;;;;;14.15;4.78;;;;;;;3.20;100.00;102985.09;6246337;28;20099;-69
2022/04/17 02:40:10;;;;;;;9.60;4.18;;;;;;;3.22;100.00;102980.78;6246152;28;20456;-69
2022/04/17 02:43:12;;;;;;;10.35;5.30;;;;;;;3.21;100.00;102976.44;6245960;28;20646;-69
2022/04/17 02:47:42;;;;;;;9.30;4.53;;;;;;;3.17;100.00;102975.53;6246707;28;20053;-69
2022/04/17 02:49:34;;;;;;;9.32;4.68;;;;;;;3.12;100.00;102963.34;6246229;28;20524;-70
2022/04/17 02:52:36;;;;;;;10.90;4.10;;;;;;;3.10;100.00;102962.44;6245813;28;20045;-70
2022/04/17 02:55:38;;;;;;;9.40;4.65;;;;;;;3.09;100.00;102961.59;6246462;28;20060;-70
2022/04/17 02:58:40;;;;;;;6.57;3.88;;;;;;;3.02;100.00;102962.34;6251367;28;20072;-70
2022/04/17 03:08:19;;;;;;;9.27;4.18;;;;;;;2.98;100.00;102970.94;6251060;28;20136;-70
2022/04/17 03:11:21;;;;;;;8.80;4.72;;;;;;;2.92;100.00;102963.94;6250370;28;20049;-70
2022/04/17 03:14:24;;;;;;;10.80;5.45;;;;;;;2.87;100.00;102954.34;6250700;28;20136;-70
2022/04/17 03:17:25;;;;;;;8.48;4.13;;;;;;;2.87;100.00;102957.81;6251141;28;20057;-70
2022/04/17 03:20:26;;;;;;;11.15;5.32;;;;;;;2.89;100.00;102944.84;6249356;28;20053;-70
2022/04/17 03:23:28;;;;;;;14.73;4.68;;;;;;;2.91;100.00;102949.22;6250745;28;20049;-70
2022/04/17 03:26:30;;;;;;;9.43;4.75;;;;;;;2.88;100.00;102943.09;6250551;28;20433;-71
2022/04/17 03:29:32;;;;;;;11.02;4.32;;;;;;;2.88;100.00;102940.50;6250682;28;20049;-70
2022/04/17 03:32:33;;;;;;;10.50;4.88;;;;;;;2.89;100.00;102937.06;6249876;28;20406;-71
2022/04/17 03:35:34;;;;;;;10.32;4.63;;;;;;;2.89;100.00;102929.25;6250462;28;20053;-70
2022/04/17 03:38:36;;;;;;;10.40;4.57;;;;;;;2.85;100.00;102930.06;6250287;28;20420;-70
2022/04/17 03:41:38;;;;;;;8.77;5.13;;;;;;;2.77;100.00;102916.97;6249567;28;20175;-70
2022/04/17 03:44:40;;;;;;;12.85;4.88;;;;;;;2.73;100.00;102917.81;6250431;28;20049;-70
2022/04/17 03:47:42;;;;;;;12.30;5.65;;;;;;;2.72;100.00;102911.72;6250061;28;20054;-70
2022/04/17 03:50:43;;;;;;;8.75;4.22;;;;;;;2.67;100.00;102905.59;6249251;28;20052;-70
2022/04/17 03:53:44;;;;;;;8.65;4.70;;;;;;;2.63;100.00;102909.00;6249961;28;20045;-70
2022/04/17 03:56:48;;;;;;;17.20;5.72;;;;;;;2.57;100.00;102903.72;6250118;28;20050;-70
2022/04/17 03:59:49;;;;;;;6.35;3.65;;;;;;;2.51;100.00;102898.44;6249380;28;20175;-70
2022/04/17 04:02:52;;;;;;;9.55;4.10;;;;;;;2.45;100.00;102912.22;6249594;28;20049;-70
2022/04/17 04:05:53;;;;;;;8.63;4.43;;;;;;;2.42;100.00;102912.16;6249597;28;20394;-70
2022/04/17 04:08:54;;;;;;;11.23;4.47;;;;;;;2.36;100.00;102912.03;6249382;28;20053;-70
2022/04/17 04:11:57;;;;;;;15.73;4.88;;;;;;;2.34;100.00;102910.28;6248981;28;20072;-70
2022/04/17 04:14:58;;;;;;;7.97;4.70;;;;;;;2.31;100.00;102912.81;6249467;28;20049;-70
2022/04/17 04:18:00;;;;;;;8.32;3.90;;;;;;;2.27;100.00;102914.50;6249730;28;20052;-70
2022/04/17 04:21:01;;;;;;;8.40;4.32;;;;;;;2.26;100.00;102916.22;6248618;28;20060;-70
2022/04/17 04:24:03;;;;;;;11.48;4.55;;;;;;;2.25;100.00;102911.88;6249557;28;20052;-70
2022/04/17 04:30:24;;;;;;;7.15;3.60;;;;;;;2.13;100.00;102918.59;6248589;28;20054;-70
2022/04/17 04:33:26;;;;;;;6.15;3.17;;;;;;;2.14;100.00;102916.03;6248915;28;20053;-70
2022/04/17 04:36:27;;;;;;;9.88;4.60;;;;;;;2.09;100.00;102915.09;6249116;28;20045;-70
2022/04/17 04:39:29;;;;;;;10.32;5.03;;;;;;;2.07;100.00;102916.78;6248991;28;20049;-70
2022/04/17 04:42:31;;;;;;;6.75;3.92;;;;;;;2.12;100.00;102909.94;6248113;28;20111;-70
2022/04/17 04:52:11;;;;;;;10.63;4.05;;;;;;;2.13;100.00;102919.47;6247919;28;20050;-70
2022/04/17 04:55:12;;;;;;;7.45;3.72;;;;;;;2.11;100.00;102928.09;6248680;28;20401;-70
2022/04/17 04:58:15;;;;;;;11.23;4.95;;;;;;;2.04;100.00;102934.88;6248394;28;20049;-70
2022/04/17 05:01:16;;;;;;;14.68;4.28;;;;;;;2.11;100.00;102938.47;6247923;28;20493;-70
2022/04/17 05:04:18;;;;;;;8.95;4.38;;;;;;;2.20;100.00;102938.59;6248328;28;20056;-70
2022/04/17 05:07:20;;;;;;;10.68;4.00;;;;;;;2.25;100.00;102937.81;6248277;28;20053;-70
2022/04/17 05:10:21;;;;;;;5.00;3.28;;;;;;;2.30;100.00;102935.31;6247584;28;20058;-70
2022/04/17 05:13:24;;;;;;;9.52;4.60;;;;;;;2.33;100.00;102932.78;6247962;28;20052;-70
2022/04/17 05:16:26;;;;;;;6.90;3.70;;;;;;;2.32;100.00;102937.91;6248073;28;20053;-70
2022/04/17 05:19:27;;;;;;;11.73;4.82;;;;;;;2.37;100.00;102937.16;6246923;28;20080;-70
2022/04/17 05:22:31;;;;;;;12.18;5.75;;;;;;;2.47;100.00;102940.78;6247199;28;20056;-70
2022/04/17 05:25:32;;;;;;;9.82;4.43;;;;;;;2.53;100.00;102930.47;6247427;28;20061;-70
2022/04/17 05:28:35;;;;;;;13.40;4.43;;;;;;;2.62;100.00;102935.81;6247629;28;20493;-70
2022/04/17 05:31:37;;;;;;;9.80;4.07;;;;;;;2.66;100.00;102934.13;6246352;28;20504;-70
2022/04/17 05:34:38;;;;;;;5.93;3.33;;;;;;;2.64;100.00;102933.25;6247734;28;20056;-70
2022/04/17 05:37:39;;;;;;;6.53;3.33;;;;;;;2.64;100.00;102936.72;6247097;28;20053;-70
2022/04/17 05:40:43;;;;;;;6.20;3.97;;;;;;;2.68;100.00;102930.72;6242393;28;20049;-70
2022/04/17 05:43:45;;;;;;;7.70;4.15;;;;;;;2.73;100.00;102926.47;6245597;28;20046;-70
2022/04/17 05:46:47;;;;;;;6.95;3.80;;;;;;;2.81;100.00;102929.16;6245546;28;20556;-70
2022/04/17 05:49:48;;;;;;;9.30;4.10;;;;;;;2.86;100.00;102932.72;6245475;28;20049;-70
2022/04/17 05:52:50;;;;;;;7.38;3.85;;;;;;;2.97;100.00;102940.63;6245007;28;20055;-70
2022/04/17 05:55:51;;;;;;;9.82;3.92;;;;;;;3.08;100.00;102936.44;6246614;28;20045;-70
2022/04/17 05:58:54;;;;;;;9.95;4.80;;;;;;;3.13;100.00;102931.31;6246975;28;20140;-70
2022/04/17 06:01:55;;;;;;;6.78;3.28;;;;;;;3.21;100.00;102938.34;6246509;28;20440;-70
2022/04/17 06:04:56;;;;;;;7.93;3.97;;;;;;;3.29;100.00;102934.13;6243583;28;20049;-71
2022/04/17 06:07:58;;;;;;;11.05;4.10;;;;;;;3.42;100.00;102940.34;6246883;28;20489;-71
2022/04/17 06:10:59;;;;;;;10.63;5.00;;;;;;;3.58;100.00;102936.16;6246415;28;20520;-70
2022/04/17 06:14:02;;;;;;;8.15;3.42;;;;;;;3.68;100.00;102934.53;6246805;28;20053;-70
2022/04/17 06:17:04;;;;;;;5.90;3.70;;;;;;;3.77;100.00;102932.03;6247022;28;20049;-70
2022/04/17 06:20:07;;;;;;;10.30;4.30;;;;;;;3.90;98.23;102938.22;6246371;28;20065;-70
2022/04/17 06:23:08;;;;;;;9.45;3.33;;;;;;;3.98;98.66;102934.84;6246497;28;20128;-70
2022/04/17 06:26:10;;;;;;;11.10;3.85;;;;;;;4.06;98.14;102935.78;6246570;28;20516;-70
2022/04/17 06:29:13;;;;;;;7.65;3.30;;;;;;;4.12;97.74;102932.38;6246838;28;20045;-70
2022/04/17 06:32:15;;;;;;;10.60;3.45;;;;;;;4.18;95.82;102931.53;6245090;28;20134;-71
2022/04/17 06:35:17;;;;;;;7.32;2.65;;;;;;;4.19;95.08;102921.16;6246841;28;20056;-71
2022/04/17 06:38:20;;;;;;;7.25;3.38;;;;;;;4.26;94.78;102924.66;6246258;28;20052;-70
2022/04/17 06:41:21;;;;;;;9.98;3.22;;;;;;;4.35;94.26;102929.94;6245505;28;20049;-70
2022/04/17 06:44:24;;;;;;;5.20;2.58;;;;;;;4.44;94.34;102921.34;6246069;28;20050;-70
2022/04/17 06:47:25;;;;;;;8.35;2.58;;;;;;;4.55;93.27;102912.75;6246357;28;20054;-70
2022/04/17 06:50:27;;;;;;;5.60;2.30;;;;;;;4.69;91.87;102920.66;6244540;28;20045;-70
2022/04/17 06:53:28;;;;;;;5.20;2.47;;;;;;;4.81;90.48;102918.13;6244049;28;20042;-70
2022/04/17 06:56:29;;;;;;;9.20;3.33;;;;;;;4.92;88.70;102915.56;6246077;28;20471;-70
2022/04/17 06:59:32;;;;;;;5.53;3.13;;;;;;;5.01;88.83;102919.94;6246092;28;20061;-70
2022/04/17 07:02:33;;;;;;;4.63;1.90;;;;;;;5.14;85.25;102913.94;6245839;28;20152;-71
2022/04/17 07:05:35;;;;;;;5.75;2.97;;;;;;;5.30;83.71;102907.91;6245996;28;20065;-70
2022/04/17 07:08:36;;;;;;;5.50;2.53;;;;;;;5.49;80.56;102915.75;6246311;28;20056;-70
2022/04/17 07:11:37;;;;;;;4.03;2.38;;;;;;;5.62;80.45;102901.88;6245437;28;20068;-70
2022/04/17 07:14:40;;;;;;;8.88;3.22;;;;;;;5.71;82.63;102904.50;6246381;28;20049;-71
2022/04/17 07:17:42;;;;;;;7.72;3.10;;;;;;;5.77;83.29;102904.53;6245952;28;20064;-71
2022/04/17 07:20:43;;;;;;;7.00;3.08;;;;;;;5.82;84.32;102894.13;6244900;28;20045;-71
2022/04/17 07:23:47;;;;;;;6.25;2.88;;;;;;;5.87;82.96;102894.97;6245963;28;20053;-70
2022/04/17 07:26:53;;;;;;;8.57;3.10;;;;;;;5.93;82.97;102889.78;6244359;28;20046;-70
2022/04/17 07:29:56;;;;;;;4.30;2.50;;;;;;;6.00;83.43;102893.28;6242119;28;20128;-70
2022/04/17 07:32:59;;;;;;;6.28;2.38;;;;;;;6.06;82.93;102894.16;6244004;28;20053;-71
2022/04/17 07:36:01;;;;;;;9.00;2.95;;;;;;;6.17;80.64;102890.66;6246066;28;20053;-70
2022/04/17 07:39:03;;;;;;;5.10;3.00;;;;;;;6.32;79.60;102893.28;6245689;28;20107;-71
2022/04/17 07:42:04;;;;;;;5.93;2.15;;;;;;;6.41;80.86;102889.78;6246046;28;20053;-70
2022/04/17 07:45:08;;;;;;;5.15;2.33;;;;;;;6.51;79.87;102891.50;6250288;28;20057;-71
2022/04/17 07:48:10;;;;;;;4.65;1.85;;;;;;;6.62;80.78;102889.72;6250390;28;20046;-70
2022/04/17 07:51:11;;;;;;;11.00;2.35;;;;;;;6.77;81.71;102889.69;6249252;28;20057;-70
2022/04/17 07:54:13;;;;;;;3.13;2.45;;;;;;;6.97;80.51;102888.75;6250051;28;20045;-71
2022/04/17 07:57:14;;;;;;;8.80;2.17;;;;;;;7.15;79.22;102883.44;6248801;28;20053;-70
2022/04/17 08:00:19;;;;;;;5.85;2.45;;;;;;;7.37;75.10;102879.84;6249549;28;20493;-71
2022/04/17 08:03:35;;;;;;;7.00;2.67;;;;;;;7.49;74.08;102884.13;6249897;28;20050;-71
2022/04/17 08:06:36;;;;;;;5.65;2.25;;;;;;;7.61;75.02;102884.03;6249847;28;20053;-71
2022/04/17 08:09:37;;;;;;;4.65;1.98;;;;;;;7.72;73.16;102881.38;6249627;28;20053;-71
2022/04/17 08:12:39;;;;;;;2.70;2.05;;;;;;;7.74;73.96;102876.97;6248912;28;20057;-71
2022/04/17 08:15:42;;;;;;;4.30;1.83;;;;;;;7.84;73.33;102883.88;6249508;28;20046;-70
2022/04/17 08:18:44;;;;;;;6.20;2.72;;;;;;;7.98;72.51;102890.75;6249274;28;20057;-70
2022/04/17 08:21:45;;;;;;;6.45;2.63;;;;;;;8.11;73.17;102874.94;6248764;28;20056;-70
2022/04/17 08:24:46;;;;;;;3.85;2.40;;;;;;;8.51;68.52;102877.22;6249169;28;20049;-71
2022/04/17 08:27:50;;;;;;;7.28;2.22;;;;;;;8.66;70.96;102870.91;6249265;28;20053;-71
2022/04/17 08:30:53;;;;;;;6.47;2.33;;;;;;;8.68;68.57;102868.31;6248114;28;20053;-71
2022/04/17 08:33:54;;;;;;;4.35;2.22;;;;;;;8.72;66.87;102864.72;6249258;28;20439;-71
2022/04/17 08:36:55;;;;;;;3.20;2.08;;;;;;;8.88;64.98;102858.44;6248722;28;20046;-71
2022/04/17 08:39:57;;;;;;;3.97;1.80;;;;;;;8.94;66.66;102855.72;6248727;28;20049;-70
2022/04/17 08:42:58;;;;;;;3.15;1.90;;;;;;;8.99;67.64;102855.66;6248564;28;20048;-70
2022/04/17 08:46:01;;;;;;;4.43;2.13;;;;;;;9.08;67.33;102853.81;6248678;28;20448;-71
2022/04/17 08:49:03;;;;;;;2.95;1.92;;;;;;;9.08;66.13;102847.69;6248872;28;20416;-71
2022/04/17 08:52:08;;;;;;;3.47;1.83;;;;;;;9.09;66.67;102846.81;6247832;28;20053;-70
2022/04/17 08:55:10;;;;;;;2.88;1.63;;;;;;;9.31;63.60;102847.34;6247774;28;20100;-71
2022/04/17 08:58:11;;;;;;;5.20;1.98;;;;;;;9.43;63.13;102838.47;6248347;28;20191;-71
2022/04/17 09:01:18;;;;;;;3.15;1.70;;;;;;;9.37;62.75;102842.03;6248001;28;20088;-71
2022/04/17 09:04:19;;;;;;;2.55;1.60;;;;;;;9.29;63.09;102843.91;6248127;28;20053;-71
2022/04/17 09:07:21;;;;;;;2.92;1.77;;;;;;;9.41;61.28;102833.25;6248324;28;20053;-71
2022/04/17 09:10:27;;;;;;;1.67;1.30;;;;;;;9.47;60.89;102834.91;6247136;28;20050;-70
2022/04/17 09:13:30;;;;;;;3.17;1.20;;;;;;;9.48;61.28;102826.13;6247928;28;20056;-73
2022/04/17 09:16:36;;;;;;;6.05;1.40;;;;;;;9.51;60.91;102818.22;6247767;28;20050;-70
2022/04/17 09:19:37;;;;;;;2.90;1.77;;;;;;;9.61;60.78;102817.16;6247897;28;20061;-71
2022/04/17 09:22:49;;;;;;;5.38;1.45;;;;;;;9.69;58.72;102820.53;6247206;28;20413;-71
2022/04/17 09:25:50;;;;;;;1.48;0.90;;;;;;;9.82;55.74;102805.47;6247445;28;20049;-71
2022/04/17 09:28:51;;;;;;;3.13;1.33;;;;;;;9.97;53.32;102809.56;6245964;28;20056;-71
2022/04/17 09:31:59;;;;;;;2.35;1.27;;;;;;;10.15;53.08;102804.84;6245673;28;20053;-71
2022/04/17 09:35:00;;;;;;;3.00;1.42;;;;;;;10.26;50.30;102801.19;6247549;28;20046;-71
2022/04/17 09:38:05;;;;;;;1.83;1.33;;;;;;;10.24;48.16;102792.44;6245767;28;20094;-71
2022/04/17 09:41:07;;;;;;;2.60;1.27;;;;;;;10.35;47.76;102795.75;6245770;28;20041;-71
2022/04/17 09:44:12;;;;;;;2.53;1.27;;;;;;;10.28;48.31;102788.88;6242609;28;20041;-71
2022/04/17 09:47:18;;;;;;;2.88;1.20;;;;;;;10.20;47.67;102775.84;6245682;28;20053;-70
2022/04/17 09:50:30;;;;;;;1.80;0.90;;;;;;;10.37;45.68;102783.47;6246156;28;20060;-71
2022/04/17 09:53:33;;;;;;;2.95;1.05;;;;;;;10.48;44.09;102777.97;6246975;28;20052;-71
2022/04/17 09:56:37;;;;;;;1.83;1.00;;;;;;;10.46;42.25;102772.75;6246380;28;20267;-71
2022/04/17 09:59:39;;;;;;;1.08;0.73;;;;;;;10.53;43.73;102768.22;6246789;28;20056;-71
2022/04/17 10:02:43;;;;;;;2.08;0.77;;;;;;;10.60;43.08;102759.31;6246095;28;20072;-70
2022/04/17 10:05:45;;;;;;;3.03;1.20;;;;;;;10.69;41.39;102756.50;6245502;28;20041;-68
2022/04/17 10:08:47;;;;;;;2.08;1.13;;;;;;;10.85;43.58;102755.25;6246573;28;20053;-69
2022/04/17 10:11:51;;;;;;;2.75;1.55;;;;;;;10.98;43.06;102744.47;6246237;28;20053;-68
2022/04/17 10:14:53;;;;;;;3.80;1.10;;;;;;;11.10;39.94;102736.28;6246550;28;20489;-69
2022/04/17 10:18:00;;;;;;;0.82;0.73;;;;;;;11.03;40.11;102730.28;6246714;28;20572;-68
2022/04/17 10:21:04;;;;;;;3.90;1.00;;;;;;;11.33;40.41;102720.81;6245767;28;20056;-68
2022/04/17 10:24:07;;;;;;;0.70;0.68;;;;;;;11.39;40.75;102722.41;6246673;28;20072;-68
2022/04/17 10:27:14;;;;;;;2.05;0.90;;;;;;;11.74;40.74;102724.16;6246569;28;20493;-68
2022/04/17 10:30:18;;;;;;;2.15;1.08;;;;;;;11.81;37.31;102715.19;6245858;28;20053;-69
2022/04/17 10:33:36;;;;;;;1.33;0.90;;;;;;;11.91;35.74;102708.78;6246457;28;20049;-68
2022/04/17 10:36:52;;;;;;;0.88;0.70;;;;;;;11.97;38.90;102709.53;6240217;28;20259;-69
2022/04/17 10:39:57;;;;;;;2.17;0.80;;;;;;;12.19;32.54;102700.09;6245982;28;20049;-70
2022/04/17 10:43:01;;;;;;;1.23;0.88;;;;;;;12.25;34.27;102697.28;6245735;28;20092;-70
2022/04/17 10:46:13;;;;;;;1.13;0.70;;;;;;;12.31;35.60;102689.22;6245963;28;20060;-70
2022/04/17 10:49:19;;;;;;;1.45;0.90;;;;;;;12.36;36.97;102686.44;6246400;28;20041;-69
2022/04/17 10:52:27;;;;;;;0.50;0.50;;;;;;;12.43;34.94;102680.06;6245541;28;20394;-69
2022/04/17 10:55:28;;;;;;;1.20;1.00;;;;;;;12.54;32.98;102685.88;6246391;28;20049;-70
2022/04/17 10:58:37;;;;;;;1.58;0.80;;;;;;;12.53;33.48;102670.09;6246197;28;20057;-70
2022/04/17 11:01:54;;;;;;;0.70;0.60;;;;;;;12.81;33.30;102670.09;6245727;28;20497;-70
2022/04/17 11:04:57;;;;;;;3.72;0.90;;;;;;;13.17;33.95;102666.28;6246126;28;20041;-69
2022/04/17 11:08:19;;;;;;;0.90;0.73;;;;;;;13.42;33.07;102660.19;6246446;28;20053;-69
2022/04/17 11:11:21;;;;;;;1.40;0.88;;;;;;;13.57;31.95;102657.00;6236961;28;20056;-70
2022/04/17 11:14:25;;;;;;;0.68;0.63;;;;;;;13.87;32.63;102662.09;6246111;28;20608;-70
2022/04/17 11:17:29;;;;;;;1.60;0.70;;;;;;;13.88;31.47;102650.63;6247561;28;20049;-69
2022/04/17 11:20:32;;;;;;;1.17;0.90;;;;;;;14.01;32.96;102651.03;6250137;28;20081;-69
2022/04/17 11:23:58;;;;;;;2.97;0.77;;;;;;;14.34;29.61;102646.22;6250574;28;20056;-70
2022/04/17 11:27:09;;;;;;;1.25;0.90;;;;;;;14.64;30.95;102644.22;6249996;28;20416;-70
2022/04/17 11:30:31;;;;;;;1.52;0.93;;;;;;;14.97;31.75;102640.19;6250007;28;20127;-70
2022/04/17 11:33:33;;;;;;;2.85;1.02;;;;;;;15.54;29.33;102640.41;6250599;28;20053;-70
2022/04/17 11:36:36;;;;;;;1.10;0.80;;;;;;;16.09;28.71;102647.72;6249987;28;20041;-70
2022/04/17 11:39:38;;;;;;;2.55;1.33;;;;;;;16.67;26.93;102634.34;6250188;28;20053;-70
2022/04/17 11:42:44;;;;;;;1.42;0.85;;;;;;;17.13;26.43;102627.63;6249239;28;20045;-70
2022/04/17 11:45:47;;;;;;;0.70;0.70;;;;;;;17.98;26.81;102619.59;6250165;28;20140;-67
2022/04/17 11:48:48;;;;;;;4.05;0.90;;;;;;;17.88;26.89;102620.19;6249956;28;20042;-69
2022/04/17 11:51:51;;;;;;;0.75;0.60;;;;;;;18.61;24.52;102612.56;6249436;28;20042;-69
2022/04/17 11:54:53;;;;;;;1.58;0.60;;;;;;;18.52;23.92;102606.81;6249900;28;20501;-68
2022/04/17 11:57:55;;;;;;;1.27;0.80;;;;;;;18.77;24.01;102602.78;6250065;28;20056;-68
2022/04/17 12:00:57;;;;;;;1.73;0.90;;;;;;;18.84;24.25;102597.94;6249175;28;20052;-69
2022/04/17 12:03:59;;;;;;;0.95;0.60;;;;;;;19.17;24.55;102595.09;6250308;28;20078;-69
2022/04/17 12:07:01;;;;;;;0.93;0.60;;;;;;;19.14;26.13;102585.47;6249865;28;20514;-68
2022/04/17 12:10:05;;;;;;;1.45;0.98;;;;;;;19.42;25.68;102591.78;6247641;28;20057;-69
2022/04/17 12:13:18;;;;;;;1.17;1.05;;;;;;;19.11;24.76;102585.63;6249007;28;20437;-69
2022/04/17 12:16:19;;;;;;;3.97;1.13;;;;;;;18.88;23.79;102578.16;6249380;28;20045;-69
2022/04/17 12:19:21;;;;;;;1.00;0.75;;;;;;;19.31;22.87;102581.78;6249279;28;20049;-69
2022/04/17 12:22:24;;;;;;;3.45;0.70;;;;;;;19.71;24.02;102579.31;6248620;28;20136;-69
2022/04/17 12:25:27;;;;;;;2.28;0.82;;;;;;;19.67;21.19;102575.16;6249496;28;20060;-70
2022/04/17 12:28:29;;;;;;;6.80;1.10;;;;;;;19.97;22.93;102577.69;6249034;28;20049;-70
2022/04/17 12:31:30;;;;;;;0.82;0.70;;;;;;;20.09;22.61;102573.38;6248647;28;20420;-70
2022/04/17 12:34:32;;;;;;;1.40;0.77;;;;;;;19.86;22.04;102567.72;6249005;28;20049;-70
2022/04/17 12:37:35;;;;;;;0.43;0.43;;;;;;;19.93;19.86;102547.66;6248141;28;20057;-70
2022/04/17 12:40:43;;;;;;;0.60;0.52;;;;;;;20.34;21.26;102560.13;6246960;28;20360;-69
2022/04/17 12:43:47;;;;;;;0.55;0.55;;;;;;;19.66;22.06;102547.59;6248090;28;20053;-70
2022/04/17 12:46:49;;;;;;;1.23;0.60;;;;;;;19.83;21.67;102538.53;6247730;28;20057;-70
2022/04/17 12:49:57;;;;;;;0.93;0.70;;;;;;;20.16;20.47;102540.84;6247524;28;20512;-69
2022/04/17 12:53:01;;;;;;;0.45;0.45;;;;;;;20.46;19.98;102532.63;6247222;28;20050;-68
2022/04/17 12:56:03;;;;;;;0.57;0.40;;;;;;;21.21;17.78;102527.53;6247376;28;20042;-68
2022/04/17 12:59:07;;;;;;;0.82;0.60;;;;;;;20.61;20.80;102527.25;6247308;28;20417;-68
2022/04/17 13:02:13;;;;;;;1.58;0.85;;;;;;;21.10;17.97;102521.22;6246620;28;20045;-68
2022/04/17 13:05:22;;;;;;;0.85;0.50;;;;;;;20.86;20.92;102518.44;6247537;28;20045;-69
2022/04/17 13:08:24;;;;;;;1.53;0.80;;;;;;;21.04;22.08;102514.47;6247118;28;20045;-69
2022/04/17 13:11:30;;;;;;;0.63;0.52;;;;;;;20.94;22.28;102508.91;6246678;28;20295;-69
2022/04/17 13:14:32;;;;;;;0.60;0.60;;;;;;;21.37;20.56;102507.75;6246986;28;20049;-69
2022/04/17 13:17:44;;;;;;;1.17;0.40;;;;;;;21.93;18.80;102503.63;6247011;28;20053;-69
2022/04/17 13:20:47;;;;;;;0.85;0.52;;;;;;;21.26;19.81;102508.50;6246232;28;20129;-69
2022/04/17 13:23:50;;;;;;;1.45;0.80;;;;;;;21.55;20.35;102503.75;6246857;28;20049;-68
2022/04/17 13:26:52;;;;;;;4.70;0.75;;;;;;;21.51;20.68;102513.81;6246792;28;20041;-69
2022/04/17 13:29:54;;;;;;;0.60;0.60;;;;;;;21.87;19.21;102496.06;6246684;28;20133;-69
2022/04/17 13:32:55;;;;;;;1.05;0.60;;;;;;;21.21;20.59;102498.13;6246300;28;20053;-68
2022/04/17 13:35:57;;;;;;;0.95;0.43;;;;;;;21.78;19.87;102486.03;6211412;28;1022863;-68
2022/04/17 13:38:59;;;;;;;0.30;0.30;;;;;;;22.42;19.17;102477.72;6247531;28;20053;-68
2022/04/17 13:42:01;;;;;;;1.70;1.10;;;;;;;21.93;18.80;102462.63;6246398;28;20057;-69
2022/04/17 13:45:02;;;;;;;2.00;0.50;;;;;;;22.21;19.14;102459.66;6247370;28;20045;-69
2022/04/17 13:48:06;;;;;;;1.00;0.70;;;;;;;22.14;19.04;102453.03;6247206;28;20060;-68
2022/04/17 13:51:08;;;;;;;0.68;0.57;;;;;;;22.43;18.78;102449.97;6246545;28;20564;-69
2022/04/17 13:54:12;;;;;;;0.50;0.50;;;;;;;21.59;18.73;102449.06;6247307;28;20045;-68
2022/04/17 13:57:13;;;;;;;1.70;0.50;;;;;;;22.21;18.78;102440.03;6247190;28;20489;-69
2022/04/17 14:00:15;;;;;;;1.13;0.60;;;;;;;21.92;18.87;102447.53;6246790;28;20057;-68
2022/04/17 14:03:17;;;;;;;1.45;0.95;;;;;;;21.53;19.39;102439.69;6247098;28;20705;-68
2022/04/17 14:06:18;;;;;;;0.60;0.60;;;;;;;21.77;19.06;102430.81;6246372;28;20042;-69
2022/04/17 14:09:21;;;;;;;0.60;0.60;;;;;;;21.50;19.53;102431.84;6247074;28;20045;-69
2022/04/17 14:12:24;;;;;;;1.13;0.80;;;;;;;22.17;18.93;102427.88;6238295;28;20425;-69
2022/04/17 14:15:25;;;;;;;0.57;0.50;;;;;;;22.19;19.16;102417.88;6246294;28;20133;-68
2022/04/17 14:18:27;;;;;;;0.40;0.35;;;;;;;22.70;17.46;102417.50;6246213;28;20060;-68
2022/04/17 14:21:28;;;;;;;0.77;0.50;;;;;;;22.51;18.36;102413.56;6245451;28;20050;-68
2022/04/17 14:24:31;;;;;;;0.63;0.60;;;;;;;22.45;17.92;102406.03;6246425;28;20056;-68
2022/04/17 14:27:32;;;;;;;0.60;0.45;;;;;;;22.40;18.91;102393.97;6246674;28;20053;-68
2022/04/17 14:30:34;;;;;;;0.70;0.60;;;;;;;22.84;17.39;102392.28;6246145;28;20053;-68
2022/04/17 14:33:35;;;;;;;1.00;0.63;;;;;;;22.46;17.33;102388.13;6246615;28;20049;-69